Time;durP1;ratioP1;P1;durP2;ratioP2;P2;SDS_P1;SDS_P2;PMS_P1;PMS_P2;Temp;Humidity;BMP_temperature;BMP_pressure;BME280_temperature;BME280_humidity;BME280_pressure;Samples;Min_cycle;Max_cycle;Signal;HPM_P1;HPM_P2
2022/02/21 00:02:13;;;;;;;;;;;6.10;99.90;;;;;;5096389;28;19912;-83
2022/02/21 00:04:38;;;;;;;;;;;6.10;99.90;;;;;;5095787;28;19920;-79
2022/02/21 00:07:04;;;;;;;;;;;6.20;99.90;;;;;;5078836;28;19916;-81
2022/02/21 00:09:29;;;;;;;;;;;6.20;99.90;;;;;;5096970;28;19920;-81
2022/02/21 00:11:55;;;;;;;;;;;6.10;99.90;;;;;;5096256;28;19912;-79
2022/02/21 00:14:20;;;;;;;;;;;6.20;99.90;;;;;;5074960;28;19917;-80
2022/02/21 00:16:46;;;;;;;;;;;6.20;99.90;;;;;;5092445;28;19916;-79
2022/02/21 00:19:12;;;;;;;;;;;6.10;99.90;;;;;;5096395;28;20278;-81
2022/02/21 00:21:37;;;;;;;;;;;6.20;99.90;;;;;;5084051;28;19912;-79
2022/02/21 00:24:03;;;;;;;;;;;6.20;99.90;;;;;;5079326;28;20200;-81
2022/02/21 00:26:28;;;;;;;;;;;6.20;99.90;;;;;;5094234;28;19969;-80
2022/02/21 00:28:54;;;;;;;;;;;6.10;99.90;;;;;;5096332;28;20272;-78
2022/02/21 00:31:20;;;;;;;;;;;6.10;99.90;;;;;;5077900;28;19920;-79
2022/02/21 00:33:45;;;;;;;;;;;5.90;99.90;;;;;;5094935;28;20329;-79
2022/02/21 00:36:11;;;;;;;;;;;5.90;99.90;;;;;;5091653;28;19916;-79
2022/02/21 00:38:36;;;;;;;;;;;5.90;99.90;;;;;;5078246;28;19922;-78
2022/02/21 00:41:02;;;;;;;;;;;5.80;99.90;;;;;;5095291;28;20242;-83
2022/02/21 00:43:28;;;;;;;;;;;5.70;99.90;;;;;;5096295;28;19938;-84
2022/02/21 00:45:53;;;;;;;;;;;5.60;99.90;;;;;;5078069;28;20311;-80
2022/02/21 00:48:19;;;;;;;;;;;5.60;99.90;;;;;;5080377;28;19915;-83
2022/02/21 00:50:44;;;;;;;;;;;5.50;99.90;;;;;;5087903;28;20435;-79
2022/02/21 00:53:10;;;;;;;;;;;5.50;99.90;;;;;;5094707;28;19954;-83
2022/02/21 00:55:36;;;;;;;;;;;5.50;99.90;;;;;;5077672;28;19920;-83
2022/02/21 00:58:02;;;;;;;;;;;5.50;99.90;;;;;;5076459;28;19946;-82
2022/02/21 01:00:28;;;;;;;;;;;5.50;99.90;;;;;;5095521;28;19991;-84
2022/02/21 01:02:54;;;;;;;;;;;5.50;99.90;;;;;;5078036;28;20015;-85
2022/02/21 01:05:19;;;;;;;;;;;5.50;99.90;;;;;;5078320;28;19908;-85
2022/02/21 01:07:45;;;;;;;;;;;5.60;99.90;;;;;;5077941;28;19938;-83
2022/02/21 01:10:10;;;;;;;;;;;5.70;99.90;;;;;;5066651;28;19965;-84
2022/02/21 01:12:36;;;;;;;;;;;5.70;99.90;;;;;;5077577;28;19916;-82
2022/02/21 01:15:03;;;;;;;;;;;5.70;99.90;;;;;;5092347;28;19934;-79
2022/02/21 01:17:29;;;;;;;;;;;5.70;99.90;;;;;;5094980;28;19951;-80
2022/02/21 01:19:54;;;;;;;;;;;5.70;99.90;;;;;;5078038;28;19938;-84
2022/02/21 01:22:20;;;;;;;;;;;5.60;99.90;;;;;;5070685;28;19916;-80
2022/02/21 01:24:45;;;;;;;;;;;5.50;99.90;;;;;;5077954;28;20006;-82
2022/02/21 01:27:14;;;;;;;;;;;5.50;99.90;;;;;;5086597;28;20161;-79
2022/02/21 01:29:40;;;;;;;;;;;5.50;99.90;;;;;;5088283;28;19912;-81
2022/02/21 01:32:06;;;;;;;;;;;5.50;99.90;;;;;;5074506;28;20000;-80
2022/02/21 01:34:32;;;;;;;;;;;5.60;99.90;;;;;;5070684;28;20319;-78
2022/02/21 01:36:58;;;;;;;;;;;5.50;99.90;;;;;;5073339;28;19912;-80
2022/02/21 01:39:23;;;;;;;;;;;5.30;99.90;;;;;;5093976;28;20350;-80
2022/02/21 01:41:49;;;;;;;;;;;5.00;99.90;;;;;;5094760;28;19916;-79
2022/02/21 01:44:15;;;;;;;;;;;5.00;99.90;;;;;;5082087;28;19938;-79
2022/02/21 01:46:41;;;;;;;;;;;5.10;99.90;;;;;;5074988;28;19912;-83
2022/02/21 01:49:08;;;;;;;;;;;5.10;99.90;;;;;;5077411;28;19923;-81
2022/02/21 01:51:34;;;;;;;;;;;5.10;99.90;;;;;;5095222;28;19966;-78
2022/02/21 01:54:00;;;;;;;;;;;5.20;99.90;;;;;;5097546;28;19916;-82
2022/02/21 01:56:26;;;;;;;;;;;5.20;99.90;;;;;;5099170;28;19924;-80
2022/02/21 01:58:52;;;;;;;;;;;5.20;99.90;;;;;;5099027;28;20256;-81
2022/02/21 02:01:18;;;;;;;;;;;5.20;99.90;;;;;;5098218;28;19916;-80
2022/02/21 02:03:43;;;;;;;;;;;5.20;99.90;;;;;;5080774;28;20226;-79
2022/02/21 02:06:09;;;;;;;;;;;5.20;99.90;;;;;;5098780;28;19940;-81
2022/02/21 02:08:35;;;;;;;;;;;5.30;99.90;;;;;;5080469;28;19912;-81
2022/02/21 02:11:01;;;;;;;;;;;5.30;99.90;;;;;;5077031;28;20336;-80
2022/02/21 02:13:27;;;;;;;;;;;5.40;99.90;;;;;;5079257;28;19931;-81
2022/02/21 02:15:54;;;;;;;;;;;5.40;99.90;;;;;;5098792;28;19919;-80
2022/02/21 02:18:23;;;;;;;;;;;5.30;99.90;;;;;;5080485;28;19912;-80
2022/02/21 02:20:49;;;;;;;;;;;5.30;99.90;;;;;;5097297;28;20003;-80
2022/02/21 02:23:15;;;;;;;;;;;5.30;99.90;;;;;;5080498;28;20002;-79
2022/02/21 02:25:40;;;;;;;;;;;5.30;99.90;;;;;;5090088;28;20319;-79
2022/02/21 02:28:06;;;;;;;;;;;5.30;99.90;;;;;;5080512;28;19916;-81
2022/02/21 02:30:32;;;;;;;;;;;5.30;99.90;;;;;;5098330;28;19923;-81
2022/02/21 02:32:58;;;;;;;;;;;5.30;99.90;;;;;;5082028;28;19920;-81
2022/02/21 02:35:26;;;;;;;;;;;5.30;99.90;;;;;;5098071;28;19922;-80
2022/02/21 02:37:52;;;;;;;;;;;5.30;99.90;;;;;;5073290;28;19956;-80
2022/02/21 02:40:18;;;;;;;;;;;5.20;99.90;;;;;;5070395;28;20342;-82
2022/02/21 02:42:43;;;;;;;;;;;5.20;99.90;;;;;;5078894;28;19912;-79
2022/02/21 02:45:09;;;;;;;;;;;5.20;99.90;;;;;;5080134;28;20332;-80
2022/02/21 02:47:35;;;;;;;;;;;5.20;99.90;;;;;;5080096;28;20222;-80
2022/02/21 02:50:00;;;;;;;;;;;5.20;99.90;;;;;;5079699;28;20313;-78
2022/02/21 02:52:26;;;;;;;;;;;5.10;99.90;;;;;;5097652;28;19938;-79
2022/02/21 02:54:51;;;;;;;;;;;5.00;99.90;;;;;;5079882;28;19912;-78
2022/02/21 02:57:17;;;;;;;;;;;5.00;99.90;;;;;;5095238;28;20250;-80
2022/02/21 02:59:42;;;;;;;;;;;5.00;99.90;;;;;;5079647;28;19912;-82
2022/02/21 03:02:08;;;;;;;;;;;5.00;99.90;;;;;;5079197;28;19912;-79
2022/02/21 03:04:33;;;;;;;;;;;5.00;99.90;;;;;;5078688;28;19916;-82
2022/02/21 03:07:00;;;;;;;;;;;5.00;99.90;;;;;;5082110;28;20239;-77
2022/02/21 03:09:26;;;;;;;;;;;5.00;99.90;;;;;;5081514;28;19912;-80
2022/02/21 03:11:52;;;;;;;;;;;5.10;99.90;;;;;;5069033;28;19924;-80
2022/02/21 03:14:18;;;;;;;;;;;5.00;99.90;;;;;;5097393;28;19912;-79
2022/02/21 03:16:43;;;;;;;;;;;5.00;99.90;;;;;;5079637;28;19913;-78
2022/02/21 03:19:09;;;;;;;;;;;5.10;99.90;;;;;;5079465;28;19969;-83
2022/02/21 03:21:34;;;;;;;;;;;5.10;99.90;;;;;;5097420;28;19920;-82
2022/02/21 03:24:00;;;;;;;;;;;5.10;99.90;;;;;;5097369;28;20318;-81
2022/02/21 03:26:25;;;;;;;;;;;5.10;99.90;;;;;;5097156;28;19973;-81
2022/02/21 03:28:51;;;;;;;;;;;5.00;99.90;;;;;;5079440;28;19965;-83
2022/02/21 03:31:17;;;;;;;;;;;5.10;99.90;;;;;;5096893;28;19958;-80
2022/02/21 03:33:42;;;;;;;;;;;5.10;99.90;;;;;;5075079;28;19954;-83
2022/02/21 03:36:08;;;;;;;;;;;5.10;99.90;;;;;;5077433;28;19919;-82
2022/02/21 03:38:33;;;;;;;;;;;5.10;99.90;;;;;;5088993;28;19916;-80
2022/02/21 03:40:59;;;;;;;;;;;5.10;99.90;;;;;;5079691;28;20010;-82
2022/02/21 03:43:25;;;;;;;;;;;5.10;99.90;;;;;;5075599;28;19920;-80
2022/02/21 03:45:50;;;;;;;;;;;5.20;99.90;;;;;;5070890;28;20315;-80
2022/02/21 03:48:16;;;;;;;;;;;5.10;99.90;;;;;;5078098;28;20280;-83
2022/02/21 03:50:42;;;;;;;;;;;5.10;99.90;;;;;;5072009;28;19916;-82
2022/02/21 03:53:08;;;;;;;;;;;5.20;99.90;;;;;;5078708;28;19923;-80
2022/02/21 03:55:33;;;;;;;;;;;5.10;99.90;;;;;;5079293;28;19919;-82
2022/02/21 03:57:59;;;;;;;;;;;5.10;99.90;;;;;;5074933;28;20154;-82
2022/02/21 04:00:25;;;;;;;;;;;5.10;99.90;;;;;;5075189;28;19912;-82
2022/02/21 04:02:50;;;;;;;;;;;5.10;99.90;;;;;;5070129;28;19916;-82
2022/02/21 04:05:16;;;;;;;;;;;5.10;99.90;;;;;;5075392;28;20312;-82
2022/02/21 04:07:42;;;;;;;;;;;5.10;99.90;;;;;;5067302;28;19916;-79
2022/02/21 04:10:11;;;;;;;;;;;5.00;99.90;;;;;;5076703;28;19912;-82
2022/02/21 04:12:37;;;;;;;;;;;5.00;99.90;;;;;;5075860;28;20319;-82
2022/02/21 04:15:04;;;;;;;;;;;5.00;99.90;;;;;;5075116;28;19965;-82
2022/02/21 04:17:38;;;;;;;;;;;5.00;99.90;;;;;;5071695;28;19920;-80
2022/02/21 04:20:04;;;;;;;;;;;5.00;99.90;;;;;;5074267;28;19963;-82
2022/02/21 04:22:29;;;;;;;;;;;5.00;99.90;;;;;;5075297;28;19948;-81
2022/02/21 04:24:55;;;;;;;;;;;4.90;99.90;;;;;;5073539;28;19997;-80
2022/02/21 04:27:20;;;;;;;;;;;4.90;99.90;;;;;;5072329;28;20552;-82
2022/02/21 04:29:46;;;;;;;;;;;4.80;99.90;;;;;;5057269;28;19924;-80
2022/02/21 04:32:11;;;;;;;;;;;4.80;99.90;;;;;;5062153;28;20223;-82
2022/02/21 04:34:38;;;;;;;;;;;4.80;99.90;;;;;;5063604;28;19927;-81
2022/02/21 04:37:03;;;;;;;;;;;4.80;99.90;;;;;;5065419;28;19928;-81
2022/02/21 04:39:29;;;;;;;;;;;4.80;99.90;;;;;;5069820;28;19912;-81
2022/02/21 04:41:54;;;;;;;;;;;4.80;99.90;;;;;;5072062;28;19920;-81
2022/02/21 04:44:20;;;;;;;;;;;4.90;99.90;;;;;;5075882;28;19916;-82
2022/02/21 04:46:48;;;;;;;;;;;4.90;99.90;;;;;;5082798;28;19913;-82
2022/02/21 04:49:13;;;;;;;;;;;4.90;99.90;;;;;;5074796;28;20364;-81
2022/02/21 04:51:39;;;;;;;;;;;4.90;99.90;;;;;;5067289;28;20011;-81
2022/02/21 04:54:05;;;;;;;;;;;4.90;99.90;;;;;;5068236;28;20002;-81
2022/02/21 04:56:30;;;;;;;;;;;4.90;99.90;;;;;;5081899;28;19931;-79
2022/02/21 04:58:56;;;;;;;;;;;5.00;99.90;;;;;;5082604;28;19945;-81
2022/02/21 05:01:21;;;;;;;;;;;5.00;99.90;;;;;;5095231;28;20299;-83
2022/02/21 05:03:47;;;;;;;;;;;4.90;99.90;;;;;;5095005;28;20266;-82
2022/02/21 05:06:12;;;;;;;;;;;4.90;99.90;;;;;;5077679;28;20265;-79
2022/02/21 05:08:38;;;;;;;;;;;4.90;99.90;;;;;;5086229;28;20299;-81
2022/02/21 05:11:05;;;;;;;;;;;4.80;99.90;;;;;;5087527;28;19954;-81
2022/02/21 05:13:31;;;;;;;;;;;4.90;99.90;;;;;;5077843;28;19931;-85
2022/02/21 05:15:56;;;;;;;;;;;4.80;99.90;;;;;;5095602;28;20307;-83
2022/02/21 05:18:22;;;;;;;;;;;4.80;99.90;;;;;;5094556;28;20322;-82
2022/02/21 05:20:47;;;;;;;;;;;4.80;99.90;;;;;;5077456;28;19916;-82
2022/02/21 05:23:13;;;;;;;;;;;4.70;99.90;;;;;;5093999;28;19924;-81
2022/02/21 05:25:38;;;;;;;;;;;4.70;99.90;;;;;;5093370;28;19920;-82
2022/02/21 05:28:06;;;;;;;;;;;4.60;99.90;;;;;;5077148;28;19916;-80
2022/02/21 05:30:31;;;;;;;;;;;4.70;99.90;;;;;;5092711;28;19923;-82
2022/02/21 05:32:57;;;;;;;;;;;4.60;99.90;;;;;;5071964;28;19913;-83
2022/02/21 05:35:22;;;;;;;;;;;4.60;99.90;;;;;;5071055;28;19924;-84
2022/02/21 05:37:48;;;;;;;;;;;4.50;99.90;;;;;;5087016;28;20211;-81
2022/02/21 05:40:13;;;;;;;;;;;4.60;99.90;;;;;;5094673;28;20200;-81
2022/02/21 05:42:39;;;;;;;;;;;4.60;99.90;;;;;;5094978;28;20003;-83
2022/02/21 05:45:05;;;;;;;;;;;4.50;99.90;;;;;;5087939;28;19930;-82
2022/02/21 05:47:30;;;;;;;;;;;4.50;99.90;;;;;;5077629;28;19928;-84
2022/02/21 05:49:56;;;;;;;;;;;4.40;99.90;;;;;;5091939;28;19940;-83
2022/02/21 05:52:21;;;;;;;;;;;4.40;99.90;;;;;;5093955;28;19921;-80
2022/02/21 05:54:47;;;;;;;;;;;4.50;99.90;;;;;;5094618;28;20227;-82
2022/02/21 05:57:12;;;;;;;;;;;4.50;99.90;;;;;;5093335;28;19924;-86
2022/02/21 05:59:38;;;;;;;;;;;4.50;99.90;;;;;;5077032;28;19916;-85
2022/02/21 06:02:03;;;;;;;;;;;4.50;99.90;;;;;;5077687;28;19962;-85
2022/02/21 06:04:29;;;;;;;;;;;4.50;99.90;;;;;;5091170;28;19920;-84
2022/02/21 06:06:55;;;;;;;;;;;4.50;99.90;;;;;;5094329;28;19998;-84
2022/02/21 06:09:20;;;;;;;;;;;4.50;99.90;;;;;;5095499;28;19923;-82
2022/02/21 06:11:47;;;;;;;;;;;4.50;99.90;;;;;;5082787;28;19934;-82
2022/02/21 06:14:12;;;;;;;;;;;4.40;99.90;;;;;;5078528;28;20012;-82
2022/02/21 06:16:40;;;;;;;;;;;4.50;99.90;;;;;;5094917;28;20376;-82
2022/02/21 06:19:06;;;;;;;;;;;4.50;99.90;;;;;;5074939;28;19912;-82
2022/02/21 06:21:33;;;;;;;;;;;4.60;99.90;;;;;;5076895;28;19923;-85
2022/02/21 06:23:58;;;;;;;;;;;4.60;99.90;;;;;;5087026;28;19986;-88
2022/02/21 06:26:24;;;;;;;;;;;4.60;99.90;;;;;;5065671;28;19950;-82
2022/02/21 06:28:49;;;;;;;;;;;4.60;99.90;;;;;;5072531;28;19927;-84
2022/02/21 06:31:15;;;;;;;;;;;4.60;99.90;;;;;;5092729;28;19917;-83
2022/02/21 06:33:40;;;;;;;;;;;4.60;99.90;;;;;;5093675;28;19920;-83
2022/02/21 06:36:06;;;;;;;;;;;4.70;99.90;;;;;;5093854;28;20010;-81
2022/02/21 06:38:31;;;;;;;;;;;4.70;99.90;;;;;;5093421;28;19916;-83
2022/02/21 06:40:57;;;;;;;;;;;4.70;99.90;;;;;;5094744;28;19995;-83
2022/02/21 06:43:23;;;;;;;;;;;4.70;99.90;;;;;;5097542;28;19916;-82
2022/02/21 06:45:48;;;;;;;;;;;4.70;99.90;;;;;;5097968;28;20007;-82
2022/02/21 06:48:14;;;;;;;;;;;4.60;99.90;;;;;;5078026;28;19931;-84
2022/02/21 06:50:39;;;;;;;;;;;4.60;99.90;;;;;;5095170;28;20204;-84
2022/02/21 06:53:05;;;;;;;;;;;4.60;99.90;;;;;;5094582;28;19916;-83
2022/02/21 06:55:30;;;;;;;;;;;4.60;99.90;;;;;;5097131;28;19919;-82
2022/02/21 06:57:56;;;;;;;;;;;4.60;99.90;;;;;;5096300;28;19995;-83
2022/02/21 07:00:22;;;;;;;;;;;4.60;99.90;;;;;;5097176;28;19920;-82
2022/02/21 07:02:47;;;;;;;;;;;4.70;99.90;;;;;;5076171;28;19912;-83
2022/02/21 07:05:13;;;;;;;;;;;4.70;99.90;;;;;;5097344;28;20031;-83
2022/02/21 07:07:39;;;;;;;;;;;4.70;99.90;;;;;;5094288;28;19919;-85
2022/02/21 07:10:05;;;;;;;;;;;4.70;99.90;;;;;;5088148;28;19916;-86
2022/02/21 07:12:31;;;;;;;;;;;4.70;99.90;;;;;;5094780;28;19916;-85
2022/02/21 07:14:56;;;;;;;;;;;4.70;99.90;;;;;;5093277;28;19962;-82
2022/02/21 07:17:22;;;;;;;;;;;4.70;99.90;;;;;;5093690;28;19960;-82
2022/02/21 07:19:49;;;;;;;;;;;4.70;99.90;;;;;;5096224;28;19995;-83
2022/02/21 07:22:15;;;;;;;;;;;4.80;99.90;;;;;;5111263;22;19955;-81
2022/02/21 07:24:40;;;;;;;;;;;4.80;99.90;;;;;;5109519;28;20345;-83
2022/02/21 07:27:06;;;;;;;;;;;4.90;99.90;;;;;;5115080;28;20018;-83
2022/02/21 07:29:33;;;;;;;;;;;5.00;99.90;;;;;;5109347;28;20010;-81
2022/02/21 07:31:59;;;;;;;;;;;5.00;99.90;;;;;;5105375;28;19920;-82
2022/02/21 07:34:24;;;;;;;;;;;5.20;99.90;;;;;;5109441;28;19920;-84
2022/02/21 07:36:50;;;;;;;;;;;5.30;99.90;;;;;;5108277;28;20203;-83
2022/02/21 07:39:17;;;;;;;;;;;5.30;99.90;;;;;;5114112;28;20311;-84
2022/02/21 07:41:43;;;;;;;;;;;5.30;99.90;;;;;;5106068;28;19927;-83
2022/02/21 07:44:08;;;;;;;;;;;5.30;99.90;;;;;;5098434;28;19916;-82
2022/02/21 07:46:34;;;;;;;;;;;5.30;99.90;;;;;;5091593;28;19916;-84
2022/02/21 07:49:00;;;;;;;;;;;5.20;99.90;;;;;;5099607;28;19911;-82
2022/02/21 07:51:26;;;;;;;;;;;5.20;99.90;;;;;;5098382;28;19965;-84
2022/02/21 07:53:51;;;;;;;;;;;5.20;99.90;;;;;;5089244;28;20465;-82
2022/02/21 07:56:17;;;;;;;;;;;5.20;99.90;;;;;;5092526;28;19922;-83
2022/02/21 07:58:42;;;;;;;;;;;5.30;99.90;;;;;;5110962;28;19912;-81
2022/02/21 08:01:08;;;;;;;;;;;5.20;99.90;;;;;;5114209;28;20010;-79
2022/02/21 08:03:36;;;;;;;;;;;5.10;99.90;;;;;;5092700;28;19916;-80
2022/02/21 08:06:03;;;;;;;;;;;5.10;99.90;;;;;;5109633;28;19990;-80
2022/02/21 08:08:29;;;;;;;;;;;5.00;99.90;;;;;;5082349;28;19922;-81
2022/02/21 08:10:54;;;;;;;;;;;4.60;99.90;;;;;;5104449;28;20006;-80
2022/02/21 08:13:20;;;;;;;;;;;4.50;99.90;;;;;;5099970;28;19990;-81
2022/02/21 08:15:45;;;;;;;;;;;4.30;99.90;;;;;;5109409;28;19956;-82
2022/02/21 08:18:11;;;;;;;;;;;4.10;99.90;;;;;;5105517;28;19920;-81
2022/02/21 08:20:36;;;;;;;;;;;4.10;99.90;;;;;;5087221;28;19926;-82
2022/02/21 08:23:02;;;;;;;;;;;4.10;99.90;;;;;;5103472;28;19924;-80
2022/02/21 08:25:28;;;;;;;;;;;4.00;99.90;;;;;;5071736;28;19920;-79
2022/02/21 08:27:53;;;;;;;;;;;4.10;99.90;;;;;;5085182;28;19916;-80
2022/02/21 08:30:20;;;;;;;;;;;4.20;99.90;;;;;;5089247;28;19949;-82
2022/02/21 08:32:45;;;;;;;;;;;4.20;99.90;;;;;;5105344;28;19912;-82
2022/02/21 08:35:11;;;;;;;;;;;4.20;99.90;;;;;;5091345;28;19920;-81
2022/02/21 08:37:37;;;;;;;;;;;4.20;99.90;;;;;;5107213;28;19916;-80
2022/02/21 08:40:03;;;;;;;;;;;4.30;99.90;;;;;;5106847;28;19912;-81
2022/02/21 08:42:29;;;;;;;;;;;4.30;99.90;;;;;;5105984;28;19919;-84
2022/02/21 08:44:54;;;;;;;;;;;4.30;99.90;;;;;;5107213;28;19984;-82
2022/02/21 08:47:21;;;;;;;;;;;4.40;99.90;;;;;;5086486;28;20273;-78
2022/02/21 08:49:47;;;;;;;;;;;4.30;99.90;;;;;;5103755;28;20211;-82
2022/02/21 08:52:12;;;;;;;;;;;4.30;99.90;;;;;;5089661;28;19912;-81
2022/02/21 08:54:38;;;;;;;;;;;4.40;99.90;;;;;;5086564;28;19955;-82
2022/02/21 08:57:03;;;;;;;;;;;4.30;99.90;;;;;;5105995;28;19959;-82
2022/02/21 08:59:29;;;;;;;;;;;4.40;99.90;;;;;;5107079;27;19912;-81
2022/02/21 09:01:58;;;;;;;;;;;4.40;99.90;;;;;;5085559;28;20362;-80
2022/02/21 09:04:24;;;;;;;;;;;4.50;99.90;;;;;;5105252;28;19989;-82
2022/02/21 09:06:49;;;;;;;;;;;4.50;99.90;;;;;;5091127;28;20053;-84
2022/02/21 09:09:15;;;;;;;;;;;4.50;99.90;;;;;;5107106;28;20344;-81
2022/02/21 09:11:41;;;;;;;;;;;4.50;99.90;;;;;;5103882;28;20312;-81
2022/02/21 09:14:06;;;;;;;;;;;4.60;99.90;;;;;;5099394;28;19954;-78
2022/02/21 09:16:32;;;;;;;;;;;4.60;99.90;;;;;;5105338;28;19975;-80
2022/02/21 09:18:58;;;;;;;;;;;4.60;99.90;;;;;;5098874;28;19926;-81
2022/02/21 09:21:25;;;;;;;;;;;4.70;99.90;;;;;;5107562;28;20299;-82
2022/02/21 09:23:50;;;;;;;;;;;4.70;99.90;;;;;;5088426;28;19919;-82
2022/02/21 09:26:16;;;;;;;;;;;4.80;99.90;;;;;;5106302;28;19964;-80
2022/02/21 09:28:42;;;;;;;;;;;4.80;99.90;;;;;;5091981;28;19920;-80
2022/02/21 09:31:07;;;;;;;;;;;4.90;99.90;;;;;;5105765;28;19915;-81
2022/02/21 09:33:33;;;;;;;;;;;5.00;99.90;;;;;;5107306;28;19920;-81
2022/02/21 09:35:58;;;;;;;;;;;5.10;99.90;;;;;;5103335;28;19920;-81
2022/02/21 09:38:24;;;;;;;;;;;5.10;99.90;;;;;;5104197;28;19916;-81
2022/02/21 09:40:54;;;;;;;;;;;5.10;99.90;;;;;;5088230;28;20056;-83
2022/02/21 09:43:25;;;;;;;;;;;5.10;99.90;;;;;;5087437;28;20014;-80
2022/02/21 09:45:54;;;;;;;;;;;5.10;99.90;;;;;;5089281;28;20217;-79
2022/02/21 09:48:20;;;;;;;;;;;5.10;99.90;;;;;;5106912;28;20235;-80
2022/02/21 09:50:45;;;;;;;;;;;5.10;99.90;;;;;;5100989;28;20322;-82
2022/02/21 09:53:11;;;;;;;;;;;5.10;99.90;;;;;;5087377;28;19926;-82
2022/02/21 09:55:37;;;;;;;;;;;5.10;99.90;;;;;;5084829;28;19990;-83
2022/02/21 09:58:03;;;;;;;;;;;5.00;99.90;;;;;;5104311;28;20523;-81
2022/02/21 10:00:28;;;;;;;;;;;5.00;99.90;;;;;;5103222;28;19941;-80
2022/02/21 10:02:55;;;;;;;;;;;5.10;99.90;;;;;;5090857;28;19920;-82
2022/02/21 10:05:21;;;;;;;;;;;5.20;99.90;;;;;;5092321;28;21250;-81
2022/02/21 10:07:47;;;;;;;;;;;5.30;99.90;;;;;;5109121;28;19916;-82
2022/02/21 10:10:14;;;;;;;;;;;5.40;99.90;;;;;;5105774;28;19916;-79
2022/02/21 10:12:50;;;;;;;;;;;5.50;99.90;;;;;;5104285;28;20321;-82
2022/02/21 10:15:15;;;;;;;;;;;5.50;99.90;;;;;;5111741;28;19912;-81
2022/02/21 10:17:41;;;;;;;;;;;5.60;99.90;;;;;;5087490;28;19927;-79
2022/02/21 10:20:07;;;;;;;;;;;5.50;99.90;;;;;;5104508;28;19915;-85
2022/02/21 10:22:33;;;;;;;;;;;5.50;99.90;;;;;;5106547;27;19959;-80
2022/02/21 10:24:59;;;;;;;;;;;5.50;99.90;;;;;;5107667;28;19958;-80
2022/02/21 10:27:29;;;;;;;;;;;5.60;99.90;;;;;;5104990;28;19919;-79
2022/02/21 10:29:59;;;;;;;;;;;5.50;99.90;;;;;;5109279;28;20358;-79
2022/02/21 10:32:26;;;;;;;;;;;5.50;99.90;;;;;;5107090;28;19920;-79
2022/02/21 10:34:53;;;;;;;;;;;5.60;99.90;;;;;;5107733;27;19945;-81
2022/02/21 10:37:22;;;;;;;;;;;5.60;99.90;;;;;;5084828;28;19916;-79
2022/02/21 10:39:49;;;;;;;;;;;5.60;99.90;;;;;;5105265;28;19923;-80
2022/02/21 10:42:24;;;;;;;;;;;5.70;99.90;;;;;;5105911;28;19916;-81
2022/02/21 10:44:50;;;;;;;;;;;5.60;99.90;;;;;;5083948;28;19972;-79
2022/02/21 10:47:17;;;;;;;;;;;5.60;99.90;;;;;;5086002;28;19920;-78
2022/02/21 10:49:53;;;;;;;;;;;5.70;99.90;;;;;;5105876;28;19951;-78
2022/02/21 10:52:20;;;;;;;;;;;5.70;99.90;;;;;;5087176;28;19922;-78
2022/02/21 10:54:46;;;;;;;;;;;5.70;99.90;;;;;;5104822;28;19920;-78
2022/02/21 10:57:14;;;;;;;;;;;5.80;99.90;;;;;;5105493;28;19919;-80
2022/02/21 10:59:40;;;;;;;;;;;5.80;99.90;;;;;;5102850;28;19916;-79
2022/02/21 11:02:07;;;;;;;;;;;5.90;99.90;;;;;;5105639;28;20363;-78
2022/02/21 11:04:35;;;;;;;;;;;5.90;99.90;;;;;;5086112;28;19947;-77
2022/02/21 11:07:01;;;;;;;;;;;6.00;99.90;;;;;;5104459;27;20142;-77
2022/02/21 11:09:28;;;;;;;;;;;6.00;99.90;;;;;;5085812;28;19927;-80
2022/02/21 11:15:16;;;;;;;;;;;6.10;99.90;;;;;;5104095;28;19931;-79
2022/02/21 11:20:45;;;;;;;;;;;6.20;99.90;;;;;;5102164;28;19927;-80
2022/02/21 11:42:04;;;;;;;;;;;6.60;99.90;;;;;;5102518;28;19930;-79
2022/02/21 12:03:07;;;;;;;;;;;7.00;99.90;;;;;;5106654;28;20364;-79
2022/02/21 12:05:51;;;;;;;;;;;7.00;99.90;;;;;;5103209;28;19919;-80
2022/02/21 12:08:35;;;;;;;;;;;7.10;99.90;;;;;;5102289;28;19916;-81
2022/02/21 12:20:38;;;;;;;;;;;7.40;99.90;;;;;;5098725;28;19981;-82
2022/02/21 12:55:46;;;;;;;;;;;7.50;99.90;;;;;;5073207;28;19931;-80
2022/02/21 13:04:41;;;;;;;;;;;7.40;99.90;;;;;;5101644;28;19926;-82
2022/02/21 13:10:02;;;;;;;;;;;7.20;99.90;;;;;;5099799;28;19971;-80
2022/02/21 13:12:48;;;;;;;;;;;7.30;99.90;;;;;;5104969;28;20238;-79
2022/02/21 13:17:58;;;;;;;;;;;7.40;99.90;;;;;;5094045;28;19919;-78
2022/02/21 13:20:24;;;;;;;;;;;7.30;99.90;;;;;;5086472;28;19923;-79
2022/02/21 13:23:08;;;;;;;;;;;7.40;99.90;;;;;;5092088;27;19920;-80
2022/02/21 13:28:55;;;;;;;;;;;7.40;99.90;;;;;;5104572;27;20349;-79
2022/02/21 13:31:21;;;;;;;;;;;7.30;99.90;;;;;;5102195;28;20337;-80
2022/02/21 13:33:48;;;;;;;;;;;7.20;99.90;;;;;;5102728;28;19912;-81
2022/02/21 13:45:22;;;;;;;;;;;7.20;99.90;;;;;;5068890;28;19923;-80
2022/02/21 13:48:01;;;;;;;;;;;7.30;99.90;;;;;;5038650;28;19920;-81
2022/02/21 13:50:45;;;;;;;;;;;7.30;99.90;;;;;;5107290;27;19977;-81
2022/02/21 13:53:37;;;;;;;;;;;7.40;99.90;;;;;;5108684;27;19961;-80
2022/02/21 13:59:08;;;;;;;;;;;7.40;99.90;;;;;;5109253;28;19936;-84
2022/02/21 14:01:52;;;;;;;;;;;7.40;99.90;;;;;;5113012;27;19923;-84
2022/02/21 14:04:18;;;;;;;;;;;7.30;99.90;;;;;;5109224;28;19956;-83
2022/02/21 14:10:06;;;;;;;;;;;7.10;99.90;;;;;;5110696;27;19923;-80
2022/02/21 14:12:33;;;;;;;;;;;7.20;99.90;;;;;;5108801;28;20031;-82
2022/02/21 14:21:05;;;;;;;;;;;7.10;99.90;;;;;;5107192;28;19923;-81
2022/02/21 14:23:31;;;;;;;;;;;7.00;99.90;;;;;;5105884;28;20314;-79
2022/02/21 14:25:57;;;;;;;;;;;7.00;99.90;;;;;;5092768;28;19951;-82
2022/02/21 14:28:22;;;;;;;;;;;6.90;99.90;;;;;;5089188;28;20322;-80
2022/02/21 14:30:48;;;;;;;;;;;6.90;99.90;;;;;;5108131;28;19912;-80
2022/02/21 14:33:14;;;;;;;;;;;6.90;99.90;;;;;;5104113;27;19912;-82
2022/02/21 14:35:40;;;;;;;;;;;6.90;99.90;;;;;;5090195;28;20002;-79
2022/02/21 14:38:07;;;;;;;;;;;6.90;99.90;;;;;;5109690;28;19912;-84
2022/02/21 14:40:33;;;;;;;;;;;6.90;99.90;;;;;;5095694;28;19908;-79
2022/02/21 14:42:58;;;;;;;;;;;6.90;99.90;;;;;;5094441;28;19950;-82
2022/02/21 14:45:24;;;;;;;;;;;6.90;99.90;;;;;;5096614;28;19927;-84
2022/02/21 14:47:50;;;;;;;;;;;6.90;99.90;;;;;;5111294;28;19919;-84
2022/02/21 14:50:16;;;;;;;;;;;7.00;99.90;;;;;;5110049;28;20215;-80
2022/02/21 14:52:41;;;;;;;;;;;6.90;99.90;;;;;;5114712;27;19920;-79
2022/02/21 14:55:07;;;;;;;;;;;6.90;99.90;;;;;;5091530;28;19960;-82
2022/02/21 14:57:33;;;;;;;;;;;6.90;99.90;;;;;;5112237;28;19911;-81
2022/02/21 14:59:58;;;;;;;;;;;6.90;99.90;;;;;;5092594;28;19919;-83
2022/02/21 15:02:24;;;;;;;;;;;6.90;99.90;;;;;;5110379;28;19911;-85
2022/02/21 15:04:49;;;;;;;;;;;6.90;99.90;;;;;;5091837;28;19916;-84
2022/02/21 15:07:15;;;;;;;;;;;7.00;99.90;;;;;;5107967;28;19912;-80
2022/02/21 15:09:41;;;;;;;;;;;7.10;99.90;;;;;;5109906;28;19920;-82
2022/02/21 15:12:06;;;;;;;;;;;7.10;99.90;;;;;;5105120;28;19916;-81
2022/02/21 15:14:33;;;;;;;;;;;7.20;99.90;;;;;;5111195;28;19916;-83
2022/02/21 15:16:58;;;;;;;;;;;7.10;99.90;;;;;;5091643;28;19919;-86
2022/02/21 15:19:24;;;;;;;;;;;7.10;99.90;;;;;;5087088;28;19912;-85
2022/02/21 15:21:49;;;;;;;;;;;7.10;99.90;;;;;;5101084;28;19912;-80
2022/02/21 15:24:15;;;;;;;;;;;7.10;99.90;;;;;;5106666;28;19916;-82
2022/02/21 15:26:42;;;;;;;;;;;7.10;99.90;;;;;;5107047;28;20357;-82
2022/02/21 15:29:08;;;;;;;;;;;7.20;99.90;;;;;;5088667;27;20223;-82
2022/02/21 15:31:34;;;;;;;;;;;7.20;99.90;;;;;;5089973;28;19965;-85
2022/02/21 15:34:00;;;;;;;;;;;7.30;99.90;;;;;;5109603;28;19916;-85
2022/02/21 15:36:25;;;;;;;;;;;7.20;99.90;;;;;;5092379;27;20358;-84
2022/02/21 15:38:51;;;;;;;;;;;7.20;99.90;;;;;;5108592;28;19959;-83
2022/02/21 15:41:16;;;;;;;;;;;7.30;99.90;;;;;;5106402;28;20002;-84
2022/02/21 15:43:42;;;;;;;;;;;7.20;99.90;;;;;;5091967;28;20003;-80
2022/02/21 15:46:08;;;;;;;;;;;7.30;99.90;;;;;;5107548;28;19935;-82
2022/02/21 15:48:34;;;;;;;;;;;7.30;99.90;;;;;;5109887;28;20248;-83
2022/02/21 15:51:01;;;;;;;;;;;7.20;99.90;;;;;;5106642;27;19916;-84
2022/02/21 15:53:28;;;;;;;;;;;7.20;99.90;;;;;;5090046;28;19922;-83
2022/02/21 15:55:53;;;;;;;;;;;7.20;99.90;;;;;;5106461;28;19952;-85
2022/02/21 15:58:19;;;;;;;;;;;7.20;99.90;;;;;;5104660;28;20334;-82
2022/02/21 16:00:45;;;;;;;;;;;7.30;99.90;;;;;;5090202;28;19946;-82
2022/02/21 16:03:15;;;;;;;;;;;7.30;99.90;;;;;;5105848;28;20215;-85
2022/02/21 16:05:41;;;;;;;;;;;7.40;99.90;;;;;;5108616;28;20375;-86
2022/02/21 16:08:07;;;;;;;;;;;7.40;99.90;;;;;;5091320;28;19916;-86
2022/02/21 16:10:32;;;;;;;;;;;7.30;99.90;;;;;;5109876;28;19920;-83
2022/02/21 16:12:58;;;;;;;;;;;7.40;99.90;;;;;;5103736;28;19939;-82
2022/02/21 16:15:23;;;;;;;;;;;7.30;99.90;;;;;;5105682;28;19951;-85
2022/02/21 16:17:49;;;;;;;;;;;7.40;99.90;;;;;;5089842;28;19954;-84
2022/02/21 16:20:15;;;;;;;;;;;7.40;99.90;;;;;;5106678;28;19911;-81
2022/02/21 16:22:40;;;;;;;;;;;7.40;99.90;;;;;;5098471;28;20313;-83
2022/02/21 16:25:06;;;;;;;;;;;7.30;99.90;;;;;;5104951;28;20403;-81
2022/02/21 16:27:32;;;;;;;;;;;7.30;99.90;;;;;;5085567;28;20342;-80
2022/02/21 16:29:58;;;;;;;;;;;7.30;99.90;;;;;;5091731;28;19955;-84